sensor_id;sensor_type;location;lat;lon;timestamp;temperature;humidity
74416;SHT31;62850;42.428;25.618;2022-08-24T00:02:25;21.30;69.57
74416;SHT31;62850;42.428;25.618;2022-08-24T00:04:51;21.19;69.94
74416;SHT31;62850;42.428;25.618;2022-08-24T00:07:17;21.20;70.47
74416;SHT31;62850;42.428;25.618;2022-08-24T00:09:44;21.24;70.87
74416;SHT31;62850;42.428;25.618;2022-08-24T00:12:10;21.27;70.86
74416;SHT31;62850;42.428;25.618;2022-08-24T00:14:36;21.26;71.50
74416;SHT31;62850;42.428;25.618;2022-08-24T00:17:02;21.28;72.06
74416;SHT31;62850;42.428;25.618;2022-08-24T00:19:28;21.27;72.51
74416;SHT31;62850;42.428;25.618;2022-08-24T00:21:54;21.30;72.71
74416;SHT31;62850;42.428;25.618;2022-08-24T00:24:19;21.20;73.17
74416;SHT31;62850;42.428;25.618;2022-08-24T00:26:45;21.20;73.32
74416;SHT31;62850;42.428;25.618;2022-08-24T00:29:16;21.17;73.43
74416;SHT31;62850;42.428;25.618;2022-08-24T00:31:41;21.27;73.42
74416;SHT31;62850;42.428;25.618;2022-08-24T00:34:07;21.24;73.50
74416;SHT31;62850;42.428;25.618;2022-08-24T00:36:33;21.30;73.51
74416;SHT31;62850;42.428;25.618;2022-08-24T00:39:00;21.37;73.66
74416;SHT31;62850;42.428;25.618;2022-08-24T00:41:27;21.47;73.34
74416;SHT31;62850;42.428;25.618;2022-08-24T00:43:57;21.50;73.46
74416;SHT31;62850;42.428;25.618;2022-08-24T00:49:41;21.47;73.84
74416;SHT31;62850;42.428;25.618;2022-08-24T00:52:10;21.55;73.51
74416;SHT31;62850;42.428;25.618;2022-08-24T00:54:40;21.61;73.25
74416;SHT31;62850;42.428;25.618;2022-08-24T00:57:08;21.66;73.07
74416;SHT31;62850;42.428;25.618;2022-08-24T00:59:40;21.66;73.23
74416;SHT31;62850;42.428;25.618;2022-08-24T01:02:11;21.69;72.97
74416;SHT31;62850;42.428;25.618;2022-08-24T01:04:46;21.77;72.93
74416;SHT31;62850;42.428;25.618;2022-08-24T01:07:13;21.72;72.79
74416;SHT31;62850;42.428;25.618;2022-08-24T01:09:39;21.72;73.00
74416;SHT31;62850;42.428;25.618;2022-08-24T01:12:04;21.75;72.96
74416;SHT31;62850;42.428;25.618;2022-08-24T01:14:30;21.81;73.01
74416;SHT31;62850;42.428;25.618;2022-08-24T01:16:56;21.75;73.15
74416;SHT31;62850;42.428;25.618;2022-08-24T01:19:50;21.77;73.03
74416;SHT31;62850;42.428;25.618;2022-08-24T01:22:31;21.69;73.16
74416;SHT31;62850;42.428;25.618;2022-08-24T01:24:59;21.71;73.35
74416;SHT31;62850;42.428;25.618;2022-08-24T01:27:25;21.63;73.60
74416;SHT31;62850;42.428;25.618;2022-08-24T01:29:52;21.65;73.88
74416;SHT31;62850;42.428;25.618;2022-08-24T01:32:21;21.68;73.88
74416;SHT31;62850;42.428;25.618;2022-08-24T01:34:47;21.65;74.09
74416;SHT31;62850;42.428;25.618;2022-08-24T01:37:14;21.68;73.80
74416;SHT31;62850;42.428;25.618;2022-08-24T01:39:42;21.68;73.84
74416;SHT31;62850;42.428;25.618;2022-08-24T01:42:08;21.68;73.55
74416;SHT31;62850;42.428;25.618;2022-08-24T01:44:35;21.77;73.28
74416;SHT31;62850;42.428;25.618;2022-08-24T01:47:03;21.77;72.92
74416;SHT31;62850;42.428;25.618;2022-08-24T01:49:33;21.68;73.54
74416;SHT31;62850;42.428;25.618;2022-08-24T01:51:59;21.54;74.07
74416;SHT31;62850;42.428;25.618;2022-08-24T01:54:25;21.44;74.62
74416;SHT31;62850;42.428;25.618;2022-08-24T01:56:51;21.30;74.71
74416;SHT31;62850;42.428;25.618;2022-08-24T01:59:18;21.13;75.20
74416;SHT31;62850;42.428;25.618;2022-08-24T02:01:49;21.15;73.99
74416;SHT31;62850;42.428;25.618;2022-08-24T02:04:16;21.08;73.89
74416;SHT31;62850;42.428;25.618;2022-08-24T02:06:41;21.07;73.46
74416;SHT31;62850;42.428;25.618;2022-08-24T02:09:10;21.04;72.71
74416;SHT31;62850;42.428;25.618;2022-08-24T02:11:36;21.14;72.20
74416;SHT31;62850;42.428;25.618;2022-08-24T02:14:02;21.23;71.76
74416;SHT31;62850;42.428;25.618;2022-08-24T02:16:28;21.32;71.35
74416;SHT31;62850;42.428;25.618;2022-08-24T02:18:54;21.44;70.84
74416;SHT31;62850;42.428;25.618;2022-08-24T02:21:20;21.51;70.69
74416;SHT31;62850;42.428;25.618;2022-08-24T02:23:46;21.51;70.65
74416;SHT31;62850;42.428;25.618;2022-08-24T02:26:12;21.57;70.62
74416;SHT31;62850;42.428;25.618;2022-08-24T02:28:38;21.61;70.40
74416;SHT31;62850;42.428;25.618;2022-08-24T02:31:05;21.62;70.18
74416;SHT31;62850;42.428;25.618;2022-08-24T02:33:33;21.61;70.77
74416;SHT31;62850;42.428;25.618;2022-08-24T02:35:59;21.59;70.91
74416;SHT31;62850;42.428;25.618;2022-08-24T02:38:24;21.58;71.14
74416;SHT31;62850;42.428;25.618;2022-08-24T02:40:50;21.62;71.27
74416;SHT31;62850;42.428;25.618;2022-08-24T02:43:15;21.62;71.04
74416;SHT31;62850;42.428;25.618;2022-08-24T02:45:43;21.72;70.32
74416;SHT31;62850;42.428;25.618;2022-08-24T02:48:12;21.81;69.88
74416;SHT31;62850;42.428;25.618;2022-08-24T02:50:43;21.88;70.15
74416;SHT31;62850;42.428;25.618;2022-08-24T02:53:11;21.92;70.00
74416;SHT31;62850;42.428;25.618;2022-08-24T02:55:38;22.02;69.61
74416;SHT31;62850;42.428;25.618;2022-08-24T02:58:06;22.06;69.31
74416;SHT31;62850;42.428;25.618;2022-08-24T03:00:33;22.09;69.58
74416;SHT31;62850;42.428;25.618;2022-08-24T03:03:01;22.06;69.71
74416;SHT31;62850;42.428;25.618;2022-08-24T03:05:27;22.05;70.00
74416;SHT31;62850;42.428;25.618;2022-08-24T03:07:53;21.95;70.52
74416;SHT31;62850;42.428;25.618;2022-08-24T03:10:19;21.89;70.17
74416;SHT31;62850;42.428;25.618;2022-08-24T03:12:45;21.90;70.37
74416;SHT31;62850;42.428;25.618;2022-08-24T03:15:11;21.90;70.16
74416;SHT31;62850;42.428;25.618;2022-08-24T03:17:38;21.90;70.45
74416;SHT31;62850;42.428;25.618;2022-08-24T03:20:06;21.93;70.01
74416;SHT31;62850;42.428;25.618;2022-08-24T03:22:32;21.93;70.23
74416;SHT31;62850;42.428;25.618;2022-08-24T03:24:58;21.93;70.28
74416;SHT31;62850;42.428;25.618;2022-08-24T03:27:24;21.98;70.30
74416;SHT31;62850;42.428;25.618;2022-08-24T03:29:49;21.90;70.33
74416;SHT31;62850;42.428;25.618;2022-08-24T03:32:15;21.86;70.37
74416;SHT31;62850;42.428;25.618;2022-08-24T03:34:40;21.75;70.79
74416;SHT31;62850;42.428;25.618;2022-08-24T03:37:06;21.77;70.55
74416;SHT31;62850;42.428;25.618;2022-08-24T03:39:31;21.72;70.68
74416;SHT31;62850;42.428;25.618;2022-08-24T03:41:57;21.71;70.54
74416;SHT31;62850;42.428;25.618;2022-08-24T03:44:22;21.74;70.62
74416;SHT31;62850;42.428;25.618;2022-08-24T03:46:50;21.71;70.58
74416;SHT31;62850;42.428;25.618;2022-08-24T03:49:17;21.75;70.22
74416;SHT31;62850;42.428;25.618;2022-08-24T03:51:42;21.81;70.09
74416;SHT31;62850;42.428;25.618;2022-08-24T03:54:08;21.79;70.16
74416;SHT31;62850;42.428;25.618;2022-08-24T03:56:34;21.72;70.46
74416;SHT31;62850;42.428;25.618;2022-08-24T03:58:59;21.77;70.21
74416;SHT31;62850;42.428;25.618;2022-08-24T04:01:25;21.72;70.33
74416;SHT31;62850;42.428;25.618;2022-08-24T04:03:51;21.66;70.43
74416;SHT31;62850;42.428;25.618;2022-08-24T04:06:19;21.71;70.35
74416;SHT31;62850;42.428;25.618;2022-08-24T04:08:46;21.72;70.23
74416;SHT31;62850;42.428;25.618;2022-08-24T04:11:18;21.63;70.63
74416;SHT31;62850;42.428;25.618;2022-08-24T04:13:45;21.59;70.63
74416;SHT31;62850;42.428;25.618;2022-08-24T04:16:13;21.61;70.26
74416;SHT31;62850;42.428;25.618;2022-08-24T04:18:39;21.52;70.40
74416;SHT31;62850;42.428;25.618;2022-08-24T04:21:06;21.55;70.11
74416;SHT31;62850;42.428;25.618;2022-08-24T04:23:38;21.58;70.01
74416;SHT31;62850;42.428;25.618;2022-08-24T04:26:04;21.62;69.59
74416;SHT31;62850;42.428;25.618;2022-08-24T04:28:30;21.66;69.44
74416;SHT31;62850;42.428;25.618;2022-08-24T04:30:56;21.69;68.95
74416;SHT31;62850;42.428;25.618;2022-08-24T04:33:22;21.72;68.87
74416;SHT31;62850;42.428;25.618;2022-08-24T04:35:48;21.78;68.51
74416;SHT31;62850;42.428;25.618;2022-08-24T04:38:17;21.79;68.36
74416;SHT31;62850;42.428;25.618;2022-08-24T04:40:44;21.90;68.26
74416;SHT31;62850;42.428;25.618;2022-08-24T04:43:11;21.98;67.99
74416;SHT31;62850;42.428;25.618;2022-08-24T04:45:41;22.09;67.71
74416;SHT31;62850;42.428;25.618;2022-08-24T04:48:07;22.16;67.46
74416;SHT31;62850;42.428;25.618;2022-08-24T04:50:34;22.30;67.03
74416;SHT31;62850;42.428;25.618;2022-08-24T04:53:00;22.46;66.27
74416;SHT31;62850;42.428;25.618;2022-08-24T04:55:26;22.58;65.67
74416;SHT31;62850;42.428;25.618;2022-08-24T04:57:51;22.72;65.40
74416;SHT31;62850;42.428;25.618;2022-08-24T05:00:17;22.81;65.21
74416;SHT31;62850;42.428;25.618;2022-08-24T05:02:42;22.90;64.56
74416;SHT31;62850;42.428;25.618;2022-08-24T05:05:08;22.94;64.31
74416;SHT31;62850;42.428;25.618;2022-08-24T05:07:35;23.02;64.19
74416;SHT31;62850;42.428;25.618;2022-08-24T05:10:02;23.04;64.33
74416;SHT31;62850;42.428;25.618;2022-08-24T05:12:28;23.02;64.45
74416;SHT31;62850;42.428;25.618;2022-08-24T05:14:53;23.14;63.85
74416;SHT31;62850;42.428;25.618;2022-08-24T05:17:19;23.18;63.79
74416;SHT31;62850;42.428;25.618;2022-08-24T05:19:45;23.23;63.86
74416;SHT31;62850;42.428;25.618;2022-08-24T05:22:11;23.33;63.56
74416;SHT31;62850;42.428;25.618;2022-08-24T05:24:36;23.42;63.68
74416;SHT31;62850;42.428;25.618;2022-08-24T05:27:02;23.46;63.54
74416;SHT31;62850;42.428;25.618;2022-08-24T05:29:28;23.52;63.34
74416;SHT31;62850;42.428;25.618;2022-08-24T05:31:53;23.55;62.77
74416;SHT31;62850;42.428;25.618;2022-08-24T05:34:19;23.50;63.10
74416;SHT31;62850;42.428;25.618;2022-08-24T05:36:45;23.59;63.14
74416;SHT31;62850;42.428;25.618;2022-08-24T05:39:12;23.59;63.26
74416;SHT31;62850;42.428;25.618;2022-08-24T05:41:42;23.67;63.33
74416;SHT31;62850;42.428;25.618;2022-08-24T05:44:09;23.76;63.14
74416;SHT31;62850;42.428;25.618;2022-08-24T05:46:35;23.84;62.78
74416;SHT31;62850;42.428;25.618;2022-08-24T05:49:00;23.88;63.17
74416;SHT31;62850;42.428;25.618;2022-08-24T05:51:26;23.94;63.07
74416;SHT31;62850;42.428;25.618;2022-08-24T05:53:51;24.01;63.17
74416;SHT31;62850;42.428;25.618;2022-08-24T05:56:18;24.06;62.78
74416;SHT31;62850;42.428;25.618;2022-08-24T05:58:44;24.13;62.82
74416;SHT31;62850;42.428;25.618;2022-08-24T06:01:16;24.08;62.91
74416;SHT31;62850;42.428;25.618;2022-08-24T06:03:42;24.10;63.04
74416;SHT31;62850;42.428;25.618;2022-08-24T06:06:08;24.13;63.10
74416;SHT31;62850;42.428;25.618;2022-08-24T06:08:38;24.14;62.99
74416;SHT31;62850;42.428;25.618;2022-08-24T06:11:04;24.20;63.02
74416;SHT31;62850;42.428;25.618;2022-08-24T06:13:31;24.28;62.69
74416;SHT31;62850;42.428;25.618;2022-08-24T06:16:06;24.31;63.33
74416;SHT31;62850;42.428;25.618;2022-08-24T06:18:32;24.31;63.31
74416;SHT31;62850;42.428;25.618;2022-08-24T06:20:57;24.29;63.56
74416;SHT31;62850;42.428;25.618;2022-08-24T06:23:23;24.27;63.38
74416;SHT31;62850;42.428;25.618;2022-08-24T06:25:49;24.28;63.87
74416;SHT31;62850;42.428;25.618;2022-08-24T06:28:33;24.34;64.41
74416;SHT31;62850;42.428;25.618;2022-08-24T06:31:04;24.36;64.50
74416;SHT31;62850;42.428;25.618;2022-08-24T06:33:30;24.48;63.95
74416;SHT31;62850;42.428;25.618;2022-08-24T06:35:55;24.52;64.32
74416;SHT31;62850;42.428;25.618;2022-08-24T06:38:21;24.55;64.06
74416;SHT31;62850;42.428;25.618;2022-08-24T06:40:46;24.58;63.53
74416;SHT31;62850;42.428;25.618;2022-08-24T06:43:12;24.65;63.26
74416;SHT31;62850;42.428;25.618;2022-08-24T06:45:40;24.71;63.32
74416;SHT31;62850;42.428;25.618;2022-08-24T06:48:06;24.83;62.95
74416;SHT31;62850;42.428;25.618;2022-08-24T06:50:31;24.87;63.11
74416;SHT31;62850;42.428;25.618;2022-08-24T06:52:58;24.95;62.50
74416;SHT31;62850;42.428;25.618;2022-08-24T06:55:24;25.07;62.94
74416;SHT31;62850;42.428;25.618;2022-08-24T06:57:50;25.24;61.85
74416;SHT31;62850;42.428;25.618;2022-08-24T07:00:16;25.40;61.93
74416;SHT31;62850;42.428;25.618;2022-08-24T07:02:41;25.48;61.37
74416;SHT31;62850;42.428;25.618;2022-08-24T07:05:08;25.40;60.98
74416;SHT31;62850;42.428;25.618;2022-08-24T07:07:33;25.58;61.45
74416;SHT31;62850;42.428;25.618;2022-08-24T07:09:59;25.55;60.65
74416;SHT31;62850;42.428;25.618;2022-08-24T07:12:25;25.72;60.90
74416;SHT31;62850;42.428;25.618;2022-08-24T07:14:51;25.75;60.72
74416;SHT31;62850;42.428;25.618;2022-08-24T07:17:17;25.88;60.43
74416;SHT31;62850;42.428;25.618;2022-08-24T07:19:43;26.01;60.21
74416;SHT31;62850;42.428;25.618;2022-08-24T07:22:11;26.15;59.79
74416;SHT31;62850;42.428;25.618;2022-08-24T07:24:38;26.30;58.90
74416;SHT31;62850;42.428;25.618;2022-08-24T07:27:04;26.32;58.45
74416;SHT31;62850;42.428;25.618;2022-08-24T07:29:29;26.47;58.68
74416;SHT31;62850;42.428;25.618;2022-08-24T07:31:56;26.51;57.69
74416;SHT31;62850;42.428;25.618;2022-08-24T07:34:21;26.73;57.92
74416;SHT31;62850;42.428;25.618;2022-08-24T07:36:47;26.94;57.10
74416;SHT31;62850;42.428;25.618;2022-08-24T07:39:15;26.91;57.31
74416;SHT31;62850;42.428;25.618;2022-08-24T07:41:42;27.11;56.12
74416;SHT31;62850;42.428;25.618;2022-08-24T07:44:09;27.18;56.00
74416;SHT31;62850;42.428;25.618;2022-08-24T07:46:35;26.92;56.53
74416;SHT31;62850;42.428;25.618;2022-08-24T07:49:00;26.91;57.42
74416;SHT31;62850;42.428;25.618;2022-08-24T07:51:26;26.77;57.29
74416;SHT31;62850;42.428;25.618;2022-08-24T07:53:52;26.61;58.01
74416;SHT31;62850;42.428;25.618;2022-08-24T07:56:17;26.46;58.40
74416;SHT31;62850;42.428;25.618;2022-08-24T07:58:43;26.80;57.70
74416;SHT31;62850;42.428;25.618;2022-08-24T08:01:08;27.01;56.97
74416;SHT31;62850;42.428;25.618;2022-08-24T08:03:35;27.29;56.52
74416;SHT31;62850;42.428;25.618;2022-08-24T08:06:06;27.70;55.58
74416;SHT31;62850;42.428;25.618;2022-08-24T08:08:37;28.01;55.22
74416;SHT31;62850;42.428;25.618;2022-08-24T08:11:04;28.25;53.77
74416;SHT31;62850;42.428;25.618;2022-08-24T08:13:30;28.31;53.41
74416;SHT31;62850;42.428;25.618;2022-08-24T08:15:57;28.29;53.21
74416;SHT31;62850;42.428;25.618;2022-08-24T08:18:23;28.49;53.06
74416;SHT31;62850;42.428;25.618;2022-08-24T08:20:49;28.49;52.79
74416;SHT31;62850;42.428;25.618;2022-08-24T08:23:15;28.69;52.68
74416;SHT31;62850;42.428;25.618;2022-08-24T08:26:16;28.80;52.14
74416;SHT31;62850;42.428;25.618;2022-08-24T08:28:42;28.82;52.50
74416;SHT31;62850;42.428;25.618;2022-08-24T08:31:08;28.68;52.12
74416;SHT31;62850;42.428;25.618;2022-08-24T08:33:34;28.72;52.42
74416;SHT31;62850;42.428;25.618;2022-08-24T08:36:11;28.67;52.39
74416;SHT31;62850;42.428;25.618;2022-08-24T08:38:39;28.98;51.95
74416;SHT31;62850;42.428;25.618;2022-08-24T08:43:45;29.09;51.85
74416;SHT31;62850;42.428;25.618;2022-08-24T08:48:59;28.86;51.72
74416;SHT31;62850;42.428;25.618;2022-08-24T08:54:12;28.80;51.84
74416;SHT31;62850;42.428;25.618;2022-08-24T09:02:04;27.92;54.08
74416;SHT31;62850;42.428;25.618;2022-08-24T09:07:26;27.28;56.05
74416;SHT31;62850;42.428;25.618;2022-08-24T09:17:44;27.85;54.72
74416;SHT31;62850;42.428;25.618;2022-08-24T09:20:46;27.93;54.54
74416;SHT31;62850;42.428;25.618;2022-08-24T09:31:34;28.37;54.05
74416;SHT31;62850;42.428;25.618;2022-08-24T09:34:17;28.25;54.14
74416;SHT31;62850;42.428;25.618;2022-08-24T09:36:51;28.41;54.20
74416;SHT31;62850;42.428;25.618;2022-08-24T09:58:34;26.95;57.69
74416;SHT31;62850;42.428;25.618;2022-08-24T10:06:25;27.04;57.92
74416;SHT31;62850;42.428;25.618;2022-08-24T10:09:13;26.83;57.90
74416;SHT31;62850;42.428;25.618;2022-08-24T10:14:53;26.80;57.89
74416;SHT31;62850;42.428;25.618;2022-08-24T10:25:54;26.81;57.53
74416;SHT31;62850;42.428;25.618;2022-08-24T10:31:11;27.39;56.56
74416;SHT31;62850;42.428;25.618;2022-08-24T10:34:25;27.90;55.60
74416;SHT31;62850;42.428;25.618;2022-08-24T10:42:38;28.08;53.97
74416;SHT31;62850;42.428;25.618;2022-08-24T10:45:54;28.36;54.11
74416;SHT31;62850;42.428;25.618;2022-08-24T10:53:34;29.29;51.71
74416;SHT31;62850;42.428;25.618;2022-08-24T10:56:12;29.54;50.22
74416;SHT31;62850;42.428;25.618;2022-08-24T10:59:13;29.84;50.09
74416;SHT31;62850;42.428;25.618;2022-08-24T11:01:59;29.53;50.22
74416;SHT31;62850;42.428;25.618;2022-08-24T11:04:29;28.88;51.72
74416;SHT31;62850;42.428;25.618;2022-08-24T11:07:21;28.74;52.27
74416;SHT31;62850;42.428;25.618;2022-08-24T11:09:48;28.48;52.49
74416;SHT31;62850;42.428;25.618;2022-08-24T11:14:48;28.99;52.34
74416;SHT31;62850;42.428;25.618;2022-08-24T11:17:20;29.20;51.17
74416;SHT31;62850;42.428;25.618;2022-08-24T11:19:48;29.20;51.08
74416;SHT31;62850;42.428;25.618;2022-08-24T11:24:59;29.64;50.52
74416;SHT31;62850;42.428;25.618;2022-08-24T11:27:47;29.50;51.12
74416;SHT31;62850;42.428;25.618;2022-08-24T11:32:50;29.31;50.86
74416;SHT31;62850;42.428;25.618;2022-08-24T11:40:43;29.36;50.81
74416;SHT31;62850;42.428;25.618;2022-08-24T11:43:29;29.15;51.28
74416;SHT31;62850;42.428;25.618;2022-08-24T11:59:22;28.78;53.32
74416;SHT31;62850;42.428;25.618;2022-08-24T12:01:54;28.57;53.63
74416;SHT31;62850;42.428;25.618;2022-08-24T12:07:41;28.51;52.85
74416;SHT31;62850;42.428;25.618;2022-08-24T12:10:29;28.52;53.01
74416;SHT31;62850;42.428;25.618;2022-08-24T12:13:02;28.62;52.58
74416;SHT31;62850;42.428;25.618;2022-08-24T12:18:20;29.07;52.20
74416;SHT31;62850;42.428;25.618;2022-08-24T12:20:48;28.67;53.08
74416;SHT31;62850;42.428;25.618;2022-08-24T12:23:41;28.61;53.56
74416;SHT31;62850;42.428;25.618;2022-08-24T12:26:21;28.45;53.93
74416;SHT31;62850;42.428;25.618;2022-08-24T12:28:53;28.61;53.54
74416;SHT31;62850;42.428;25.618;2022-08-24T12:31:21;28.62;53.12
74416;SHT31;62850;42.428;25.618;2022-08-24T12:33:52;28.21;53.68
74416;SHT31;62850;42.428;25.618;2022-08-24T12:36:30;27.82;54.71
74416;SHT31;62850;42.428;25.618;2022-08-24T12:39:09;27.60;55.25
74416;SHT31;62850;42.428;25.618;2022-08-24T12:42:16;27.78;55.55
74416;SHT31;62850;42.428;25.618;2022-08-24T12:44:50;28.21;54.36
74416;SHT31;62850;42.428;25.618;2022-08-24T12:50:32;28.99;51.77
74416;SHT31;62850;42.428;25.618;2022-08-24T13:01:33;29.49;50.65
74416;SHT31;62850;42.428;25.618;2022-08-24T13:04:09;29.47;50.40
74416;SHT31;62850;42.428;25.618;2022-08-24T13:06:46;29.70;49.62
74416;SHT31;62850;42.428;25.618;2022-08-24T13:11:43;30.01;48.91
74416;SHT31;62850;42.428;25.618;2022-08-24T13:14:21;30.09;49.28
74416;SHT31;62850;42.428;25.618;2022-08-24T13:21:56;29.64;49.15
74416;SHT31;62850;42.428;25.618;2022-08-24T13:30:06;30.12;48.15
74416;SHT31;62850;42.428;25.618;2022-08-24T13:32:43;30.32;48.08
74416;SHT31;62850;42.428;25.618;2022-08-24T13:40:57;29.58;49.04
74416;SHT31;62850;42.428;25.618;2022-08-24T13:43:32;29.58;49.37
74416;SHT31;62850;42.428;25.618;2022-08-24T14:24:43;28.17;53.15
74416;SHT31;62850;42.428;25.618;2022-08-24T14:27:45;28.33;52.97
74416;SHT31;62850;42.428;25.618;2022-08-24T14:43:42;28.00;53.45
74416;SHT31;62850;42.428;25.618;2022-08-24T14:46:31;27.90;53.82
74416;SHT31;62850;42.428;25.618;2022-08-24T15:08:48;28.01;53.17
74416;SHT31;62850;42.428;25.618;2022-08-24T15:11:17;27.94;53.28
74416;SHT31;62850;42.428;25.618;2022-08-24T15:19:15;27.89;53.49
74416;SHT31;62850;42.428;25.618;2022-08-24T15:27:02;27.71;54.62
74416;SHT31;62850;42.428;25.618;2022-08-24T15:29:33;27.52;55.00
74416;SHT31;62850;42.428;25.618;2022-08-24T15:34:54;27.38;55.46
74416;SHT31;62850;42.428;25.618;2022-08-24T15:37:35;27.38;55.39
74416;SHT31;62850;42.428;25.618;2022-08-24T15:40:04;27.39;55.48
74416;SHT31;62850;42.428;25.618;2022-08-24T15:42:39;27.37;55.58
74416;SHT31;62850;42.428;25.618;2022-08-24T15:45:05;27.22;55.62
74416;SHT31;62850;42.428;25.618;2022-08-24T15:47:37;27.07;55.80
74416;SHT31;62850;42.428;25.618;2022-08-24T15:50:19;27.04;56.12
74416;SHT31;62850;42.428;25.618;2022-08-24T15:53:01;26.94;56.29
74416;SHT31;62850;42.428;25.618;2022-08-24T15:55:47;26.98;56.18
74416;SHT31;62850;42.428;25.618;2022-08-24T16:00:49;26.97;56.00
74416;SHT31;62850;42.428;25.618;2022-08-24T16:04:04;26.92;56.19
74416;SHT31;62850;42.428;25.618;2022-08-24T16:09:07;26.84;56.70
74416;SHT31;62850;42.428;25.618;2022-08-24T16:14:25;26.87;56.45
74416;SHT31;62850;42.428;25.618;2022-08-24T16:16:52;26.88;56.64
74416;SHT31;62850;42.428;25.618;2022-08-24T16:19:32;26.83;56.62
74416;SHT31;62850;42.428;25.618;2022-08-24T16:21:59;26.70;56.86
74416;SHT31;62850;42.428;25.618;2022-08-24T16:24:27;26.63;56.90
74416;SHT31;62850;42.428;25.618;2022-08-24T16:32:22;26.56;57.72
74416;SHT31;62850;42.428;25.618;2022-08-24T16:34:54;26.53;58.07
74416;SHT31;62850;42.428;25.618;2022-08-24T16:37:22;26.43;58.28
74416;SHT31;62850;42.428;25.618;2022-08-24T16:39:49;26.39;58.49
74416;SHT31;62850;42.428;25.618;2022-08-24T16:42:24;26.44;58.39
74416;SHT31;62850;42.428;25.618;2022-08-24T16:44:51;26.39;58.37
74416;SHT31;62850;42.428;25.618;2022-08-24T16:47:17;26.29;58.46
74416;SHT31;62850;42.428;25.618;2022-08-24T16:49:43;26.29;58.55
74416;SHT31;62850;42.428;25.618;2022-08-24T16:52:09;26.30;58.52
74416;SHT31;62850;42.428;25.618;2022-08-24T16:54:35;26.25;58.60
74416;SHT31;62850;42.428;25.618;2022-08-24T16:57:21;26.19;58.99
74416;SHT31;62850;42.428;25.618;2022-08-24T16:59:49;26.08;59.42
74416;SHT31;62850;42.428;25.618;2022-08-24T17:02:16;26.12;59.23
74416;SHT31;62850;42.428;25.618;2022-08-24T17:04:43;26.11;59.19
74416;SHT31;62850;42.428;25.618;2022-08-24T17:07:11;26.13;58.91
74416;SHT31;62850;42.428;25.618;2022-08-24T17:09:39;26.12;58.74
74416;SHT31;62850;42.428;25.618;2022-08-24T17:12:05;26.11;58.68
74416;SHT31;62850;42.428;25.618;2022-08-24T17:14:33;26.12;58.68
74416;SHT31;62850;42.428;25.618;2022-08-24T17:16:59;26.09;58.85
74416;SHT31;62850;42.428;25.618;2022-08-24T17:19:28;26.15;58.77
74416;SHT31;62850;42.428;25.618;2022-08-24T17:21:54;26.09;59.02
74416;SHT31;62850;42.428;25.618;2022-08-24T17:24:21;26.09;59.00
74416;SHT31;62850;42.428;25.618;2022-08-24T17:26:47;26.06;59.15
74416;SHT31;62850;42.428;25.618;2022-08-24T17:29:15;26.02;59.18
74416;SHT31;62850;42.428;25.618;2022-08-24T17:31:42;25.99;59.15
74416;SHT31;62850;42.428;25.618;2022-08-24T17:34:08;26.02;58.89
74416;SHT31;62850;42.428;25.618;2022-08-24T17:36:34;26.08;58.83
74416;SHT31;62850;42.428;25.618;2022-08-24T17:39:01;25.96;59.23
74416;SHT31;62850;42.428;25.618;2022-08-24T17:41:27;25.96;59.39
74416;SHT31;62850;42.428;25.618;2022-08-24T17:43:54;25.98;59.28
74416;SHT31;62850;42.428;25.618;2022-08-24T17:46:19;25.95;59.51
74416;SHT31;62850;42.428;25.618;2022-08-24T17:48:46;25.93;59.54
74416;SHT31;62850;42.428;25.618;2022-08-24T17:51:13;25.92;59.37
74416;SHT31;62850;42.428;25.618;2022-08-24T17:53:39;25.85;59.49
74416;SHT31;62850;42.428;25.618;2022-08-24T17:56:06;25.95;59.40
74416;SHT31;62850;42.428;25.618;2022-08-24T17:58:33;25.88;59.44
74416;SHT31;62850;42.428;25.618;2022-08-24T18:01:19;25.99;58.97
74416;SHT31;62850;42.428;25.618;2022-08-24T18:03:44;25.92;59.18
74416;SHT31;62850;42.428;25.618;2022-08-24T18:06:10;25.92;59.05
74416;SHT31;62850;42.428;25.618;2022-08-24T18:08:35;25.86;59.23
74416;SHT31;62850;42.428;25.618;2022-08-24T18:11:01;25.86;59.30
74416;SHT31;62850;42.428;25.618;2022-08-24T18:13:27;25.84;59.38
74416;SHT31;62850;42.428;25.618;2022-08-24T18:15:52;25.86;59.17
74416;SHT31;62850;42.428;25.618;2022-08-24T18:18:18;25.84;59.45
74416;SHT31;62850;42.428;25.618;2022-08-24T18:20:43;25.78;59.41
74416;SHT31;62850;42.428;25.618;2022-08-24T18:23:09;25.85;59.08
74416;SHT31;62850;42.428;25.618;2022-08-24T18:25:47;25.81;59.23
74416;SHT31;62850;42.428;25.618;2022-08-24T18:28:14;25.72;59.36
74416;SHT31;62850;42.428;25.618;2022-08-24T18:30:40;25.78;59.27
74416;SHT31;62850;42.428;25.618;2022-08-24T18:33:06;25.82;59.06
74416;SHT31;62850;42.428;25.618;2022-08-24T18:35:33;25.82;58.89
74416;SHT31;62850;42.428;25.618;2022-08-24T18:37:59;25.82;59.07
74416;SHT31;62850;42.428;25.618;2022-08-24T18:40:24;25.78;59.05
74416;SHT31;62850;42.428;25.618;2022-08-24T18:42:53;25.77;58.96
74416;SHT31;62850;42.428;25.618;2022-08-24T18:45:19;25.80;59.03
74416;SHT31;62850;42.428;25.618;2022-08-24T18:47:45;25.77;58.58
74416;SHT31;62850;42.428;25.618;2022-08-24T18:50:11;25.67;59.24
74416;SHT31;62850;42.428;25.618;2022-08-24T18:52:38;25.62;59.20
74416;SHT31;62850;42.428;25.618;2022-08-24T18:55:05;25.70;58.97
74416;SHT31;62850;42.428;25.618;2022-08-24T18:57:31;25.68;58.99
74416;SHT31;62850;42.428;25.618;2022-08-24T18:59:57;25.71;58.62
74416;SHT31;62850;42.428;25.618;2022-08-24T19:02:23;25.74;58.55
74416;SHT31;62850;42.428;25.618;2022-08-24T19:05:15;25.77;58.43
74416;SHT31;62850;42.428;25.618;2022-08-24T19:07:47;25.75;58.40
74416;SHT31;62850;42.428;25.618;2022-08-24T19:10:17;25.82;57.96
74416;SHT31;62850;42.428;25.618;2022-08-24T19:12:47;25.85;57.80
74416;SHT31;62850;42.428;25.618;2022-08-24T19:15:15;25.86;57.70
74416;SHT31;62850;42.428;25.618;2022-08-24T19:17:41;25.91;57.50
74416;SHT31;62850;42.428;25.618;2022-08-24T19:20:07;25.91;57.54
74416;SHT31;62850;42.428;25.618;2022-08-24T19:22:33;25.86;57.53
74416;SHT31;62850;42.428;25.618;2022-08-24T19:25:00;25.85;57.64
74416;SHT31;62850;42.428;25.618;2022-08-24T19:27:26;25.81;57.62
74416;SHT31;62850;42.428;25.618;2022-08-24T19:29:51;25.84;57.49
74416;SHT31;62850;42.428;25.618;2022-08-24T19:32:23;25.80;57.68
74416;SHT31;62850;42.428;25.618;2022-08-24T19:34:50;25.80;57.36
74416;SHT31;62850;42.428;25.618;2022-08-24T19:37:16;25.82;57.39